createdAt,value
2018-12-19T00:01:54.015Z,47.67
2018-12-19T00:04:57.926Z,49.73
2018-12-19T00:08:01.996Z,45.37
2018-12-19T00:11:07.414Z,45.43
2018-12-19T00:14:11.812Z,45.13
2018-12-19T00:17:16.298Z,42.67
2018-12-19T00:20:20.783Z,43.67
2018-12-19T00:23:25.098Z,38.40
2018-12-19T00:26:29.287Z,38.27
2018-12-19T00:29:33.649Z,35.10
2018-12-19T00:32:37.979Z,35.43
2018-12-19T00:35:42.317Z,35.20
2018-12-19T00:38:46.714Z,39.80
2018-12-19T00:41:50.914Z,36.97
2018-12-19T00:44:55.136Z,36.70
2018-12-19T00:47:59.481Z,41.53
2018-12-19T00:51:03.539Z,35.37
2018-12-19T00:54:07.923Z,37.17
2018-12-19T00:57:12.193Z,38.23
2018-12-19T01:00:16.560Z,41.07
2018-12-19T01:03:20.853Z,54.43
2018-12-19T01:06:25.288Z,40.33
2018-12-19T01:09:29.620Z,44.30
2018-12-19T01:12:33.960Z,40.63
2018-12-19T01:15:38.089Z,42.60
2018-12-19T01:18:42.392Z,39.53
2018-12-19T01:21:46.612Z,42.10
2018-12-19T01:24:50.907Z,36.73
2018-12-19T01:27:55.238Z,39.00
2018-12-19T01:30:59.572Z,37.70
2018-12-19T01:34:04.025Z,39.27
2018-12-19T01:37:08.140Z,41.53
2018-12-19T01:40:18.805Z,37.53
2018-12-19T01:43:23.868Z,37.50
2018-12-19T01:46:28.173Z,37.37
2018-12-19T01:49:32.192Z,38.50
2018-12-19T01:52:36.695Z,39.47
2018-12-19T01:55:41.240Z,37.93
2018-12-19T01:58:45.755Z,38.07
2018-12-19T02:01:50.021Z,34.97
2018-12-19T02:04:54.514Z,35.87
2018-12-19T02:07:58.829Z,36.83
2018-12-19T02:11:03.156Z,36.43
2018-12-19T02:14:07.466Z,39.87
2018-12-19T02:17:11.918Z,38.80
2018-12-19T02:20:16.235Z,39.97
2018-12-19T02:23:20.750Z,39.57
2018-12-19T02:26:25.267Z,33.97
2018-12-19T02:29:29.612Z,29.53
2018-12-19T02:32:33.881Z,39.97
2018-12-19T02:35:38.308Z,44.20
2018-12-19T02:38:42.660Z,42.50
2018-12-19T02:41:47.155Z,32.30
2018-12-19T02:44:51.360Z,33.10
2018-12-19T02:47:55.684Z,33.33
2018-12-19T02:51:00.135Z,35.03
2018-12-19T02:54:04.507Z,35.30
2018-12-19T02:57:08.923Z,34.57
2018-12-19T03:00:13.101Z,36.17
2018-12-19T03:03:17.531Z,40.50
2018-12-19T03:06:22.515Z,39.18
2018-12-19T03:09:26.837Z,41.73
2018-12-19T03:12:30.987Z,41.07
2018-12-19T03:15:35.426Z,40.20
2018-12-19T03:18:39.888Z,33.87
2018-12-19T03:21:45.037Z,39.40
2018-12-19T03:24:49.431Z,39.93
2018-12-19T03:27:53.616Z,38.10
2018-12-19T03:30:57.897Z,38.83
2018-12-19T03:34:02.345Z,46.30
2018-12-19T03:37:06.936Z,35.37
2018-12-19T03:40:11.967Z,43.77
2018-12-19T03:43:16.082Z,41.87
2018-12-19T03:46:20.314Z,38.60
2018-12-19T03:49:25.003Z,36.80
2018-12-19T03:52:29.232Z,35.83
2018-12-19T03:55:33.604Z,41.37
2018-12-19T03:58:37.898Z,31.63
2018-12-19T04:01:42.248Z,36.93
2018-12-19T04:04:46.529Z,39.17
2018-12-19T04:07:50.683Z,32.70
2018-12-19T04:10:54.893Z,27.83
2018-12-19T04:13:59.234Z,29.50
2018-12-19T04:17:03.536Z,28.47
2018-12-19T04:20:07.972Z,30.97
2018-12-19T04:23:12.130Z,40.30
2018-12-19T04:26:16.619Z,27.03
2018-12-19T04:29:20.971Z,29.97
2018-12-19T04:32:25.611Z,34.83
2018-12-19T04:35:29.740Z,31.87
2018-12-19T04:38:34.201Z,31.07
2018-12-19T04:41:38.579Z,35.33
2018-12-19T04:44:42.689Z,33.33
2018-12-19T04:47:46.943Z,28.10
2018-12-19T04:50:51.403Z,29.50
2018-12-19T04:53:55.716Z,29.50
2018-12-19T04:56:59.819Z,29.67
2018-12-19T05:00:04.347Z,29.03
2018-12-19T05:03:08.657Z,34.63
2018-12-19T05:06:12.979Z,31.60
2018-12-19T05:09:17.370Z,31.30
2018-12-19T05:12:21.653Z,26.40
2018-12-19T05:15:26.002Z,31.10
2018-12-19T05:18:30.303Z,36.42
2018-12-19T05:21:34.547Z,28.20
2018-12-19T05:24:38.931Z,28.53
2018-12-19T05:27:43.407Z,28.53
2018-12-19T05:30:47.511Z,31.27
2018-12-19T05:33:51.858Z,34.17
2018-12-19T05:36:56.426Z,34.63
2018-12-19T05:40:00.655Z,31.10
2018-12-19T05:43:04.912Z,32.83
2018-12-19T05:46:09.356Z,32.03
2018-12-19T05:49:13.716Z,31.40
2018-12-19T05:52:18.945Z,37.73
2018-12-19T05:55:23.219Z,32.13
2018-12-19T05:58:27.254Z,31.40
2018-12-19T06:01:31.391Z,31.53
2018-12-19T06:04:35.721Z,37.70
2018-12-19T06:07:39.790Z,31.73
2018-12-19T06:10:44.052Z,34.70
2018-12-19T06:13:48.373Z,35.03
2018-12-19T06:16:52.744Z,31.10
2018-12-19T06:19:57.187Z,35.33
2018-12-19T06:23:01.569Z,32.67
2018-12-19T06:26:05.889Z,30.90
2018-12-19T06:29:10.278Z,36.90
2018-12-19T06:32:14.623Z,38.60
2018-12-19T06:35:18.825Z,35.40
2018-12-19T06:38:23.265Z,34.37
2018-12-19T06:41:27.608Z,37.53
2018-12-19T06:44:31.899Z,31.30
2018-12-19T06:47:36.088Z,35.23
2018-12-19T06:50:40.450Z,33.07
2018-12-19T06:53:44.770Z,28.60
2018-12-19T06:56:49.096Z,34.73
2018-12-19T06:59:54.223Z,34.37
2018-12-19T07:02:58.446Z,29.73
2018-12-19T07:06:02.804Z,37.30
2018-12-19T07:09:08.604Z,32.40
2018-12-19T07:12:13.038Z,34.37
2018-12-19T07:15:17.151Z,26.23
2018-12-19T07:18:21.230Z,34.10
2018-12-19T07:21:26.021Z,33.80
2018-12-19T07:24:30.679Z,37.03
2018-12-19T07:27:35.082Z,37.17
2018-12-19T07:30:39.246Z,39.77
2018-12-19T07:33:43.707Z,44.50
2018-12-19T07:36:48.172Z,33.10
2018-12-19T07:39:52.496Z,35.87
2018-12-19T07:42:56.791Z,33.23
2018-12-19T07:46:01.012Z,35.30
2018-12-19T07:49:05.431Z,37.65
2018-12-19T07:52:09.792Z,38.73
2018-12-19T07:55:14.192Z,38.37
2018-12-19T07:58:18.568Z,37.50
2018-12-19T08:01:22.811Z,51.13
2018-12-19T08:04:27.551Z,40.43
2018-12-19T08:07:32.028Z,47.13
2018-12-19T08:10:36.381Z,43.60
2018-12-19T08:13:40.887Z,46.63
2018-12-19T08:16:45.091Z,45.23
2018-12-19T08:19:49.328Z,48.00
2018-12-19T08:22:54.432Z,48.07
2018-12-19T08:25:58.329Z,40.13
2018-12-19T08:29:02.210Z,49.40
2018-12-19T08:32:05.888Z,47.83
2018-12-19T08:35:10.961Z,45.03
2018-12-19T08:38:15.289Z,53.50
2018-12-19T08:41:19.762Z,53.27
2018-12-19T08:44:24.498Z,51.73
2018-12-19T08:47:28.962Z,52.17
2018-12-19T08:50:32.860Z,54.80
2018-12-19T08:53:36.850Z,55.70
2018-12-19T08:56:41.062Z,45.67
2018-12-19T08:59:45.547Z,45.83
2018-12-19T09:02:49.471Z,54.10
2018-12-19T09:05:53.746Z,55.30
2018-12-19T09:08:57.726Z,54.17
2018-12-19T09:12:01.664Z,56.50
2018-12-19T09:15:07.014Z,49.57
2018-12-19T09:18:11.443Z,53.10
2018-12-19T09:21:15.806Z,56.47
2018-12-19T09:24:20.541Z,56.67
2018-12-19T09:27:24.881Z,52.62
2018-12-19T09:30:29.442Z,59.40
2018-12-19T09:33:33.485Z,53.50
2018-12-19T09:36:37.912Z,62.23
2018-12-19T09:39:41.839Z,54.07
2018-12-19T09:42:45.939Z,55.80
2018-12-19T09:45:50.201Z,59.43
2018-12-19T09:48:54.109Z,58.53
2018-12-19T09:51:58.456Z,62.97
2018-12-19T09:55:02.774Z,56.00
2018-12-19T09:58:07.122Z,54.93
2018-12-19T10:01:11.403Z,61.47
2018-12-19T10:04:15.735Z,59.47
2018-12-19T10:07:20.170Z,54.80
2018-12-19T10:10:24.500Z,59.67
2018-12-19T10:13:28.683Z,60.50
2018-12-19T10:16:32.977Z,59.80
2018-12-19T10:19:37.296Z,62.70
2018-12-19T10:22:41.779Z,50.20
2018-12-19T10:25:48.977Z,65.93
2018-12-19T10:28:53.490Z,52.23
2018-12-19T10:31:57.845Z,51.90
2018-12-19T10:35:01.701Z,48.50
2018-12-19T10:38:06.668Z,50.67
2018-12-19T10:41:11.104Z,55.70
2018-12-19T10:44:15.693Z,48.27
2018-12-19T10:47:20.021Z,50.80
2018-12-19T10:50:24.267Z,47.50
2018-12-19T10:53:28.574Z,51.70
2018-12-19T10:56:32.795Z,46.77
2018-12-19T10:59:37.255Z,45.00
2018-12-19T11:02:41.613Z,46.17
2018-12-19T11:05:46.402Z,39.77
2018-12-19T11:08:50.273Z,53.73
2018-12-19T11:11:54.587Z,38.70
2018-12-19T11:14:59.165Z,41.77
2018-12-19T11:18:03.307Z,39.37
2018-12-19T11:21:07.726Z,41.57
2018-12-19T11:24:11.772Z,42.53
2018-12-19T11:27:16.017Z,45.27
2018-12-19T11:30:20.947Z,45.27
2018-12-19T11:33:25.629Z,40.83
2018-12-19T11:36:30.071Z,37.57
2018-12-19T11:39:34.231Z,47.73
2018-12-19T11:42:38.335Z,38.40
2018-12-19T11:45:42.702Z,38.40
2018-12-19T11:48:47.183Z,35.20
2018-12-19T11:51:51.893Z,35.70
2018-12-19T11:54:57.016Z,37.17
2018-12-19T11:58:01.427Z,39.33
2018-12-19T12:01:05.713Z,36.23
2018-12-19T12:04:10.609Z,38.37
2018-12-19T12:07:15.270Z,36.93
2018-12-19T12:10:19.607Z,40.90
2018-12-19T12:13:24.216Z,34.97
2018-12-19T12:16:28.076Z,35.67
2018-12-19T12:19:32.195Z,43.17
2018-12-19T12:22:36.449Z,36.30
2018-12-19T12:25:40.785Z,36.63
2018-12-19T12:28:45.028Z,37.00
2018-12-19T12:31:49.022Z,31.00
2018-12-19T12:34:52.808Z,35.60
2018-12-19T12:37:56.795Z,33.13
2018-12-19T12:41:01.242Z,36.57
2018-12-19T12:44:05.498Z,29.00
2018-12-19T12:47:09.982Z,39.43
2018-12-19T12:50:14.390Z,37.10
2018-12-19T12:53:18.700Z,31.00
2018-12-19T12:56:23.325Z,30.73
2018-12-19T12:59:27.203Z,29.07
2018-12-19T13:02:31.214Z,33.33
2018-12-19T13:05:35.192Z,25.27
2018-12-19T13:08:39.115Z,26.00
2018-12-19T13:11:43.519Z,22.00
2018-12-19T13:14:47.807Z,27.93
2018-12-19T13:17:52.521Z,26.90
2018-12-19T13:20:56.792Z,30.43
2018-12-19T13:24:00.749Z,30.03
2018-12-19T13:27:04.717Z,31.00
2018-12-19T13:30:09.825Z,29.03
2018-12-19T13:33:14.202Z,27.83
2018-12-19T13:36:18.242Z,27.70
2018-12-19T13:39:22.156Z,29.17
2018-12-19T13:42:26.538Z,29.93
2018-12-19T13:45:30.890Z,29.13
2018-12-19T13:48:35.213Z,27.07
2018-12-19T13:51:39.520Z,26.37
2018-12-19T13:54:43.972Z,24.17
2018-12-19T13:57:48.469Z,27.83
2018-12-19T14:00:52.610Z,24.03
2018-12-19T14:03:56.592Z,24.80
2018-12-19T14:07:01.094Z,21.20
2018-12-19T14:10:05.890Z,28.83
2018-12-19T14:13:10.308Z,29.77
2018-12-19T14:16:14.491Z,23.53
2018-12-19T14:19:19.030Z,30.20
2018-12-19T14:22:23.354Z,27.27
2018-12-19T14:25:27.643Z,28.33
2018-12-19T14:28:32.232Z,25.07
2018-12-19T14:31:36.621Z,25.53
2018-12-19T14:34:40.944Z,28.83
2018-12-19T14:37:45.269Z,27.37
2018-12-19T14:40:49.607Z,32.23
2018-12-19T14:43:53.825Z,25.83
2018-12-19T14:46:58.034Z,25.93
2018-12-19T14:50:02.725Z,26.37
2018-12-19T14:53:07.017Z,26.93
2018-12-19T14:56:11.342Z,29.90
2018-12-19T14:59:15.642Z,26.87
2018-12-19T15:02:19.976Z,29.10
2018-12-19T15:05:24.622Z,28.87
2018-12-19T15:08:29.066Z,27.47
2018-12-19T15:11:33.459Z,37.50
2018-12-19T15:14:37.812Z,40.47
2018-12-19T15:17:43.096Z,31.73
2018-12-19T15:20:47.529Z,30.90
2018-12-19T15:23:52.111Z,35.00
2018-12-19T15:26:56.424Z,34.63
2018-12-19T15:30:00.808Z,34.40
2018-12-19T15:33:05.056Z,37.40
2018-12-19T15:36:09.509Z,32.30
2018-12-19T15:39:13.965Z,31.50
2018-12-19T15:42:18.316Z,33.03
2018-12-19T15:45:22.544Z,32.77
2018-12-19T15:48:27.375Z,32.55
2018-12-19T15:51:31.621Z,32.30
2018-12-19T15:54:35.993Z,32.63
2018-12-19T15:57:40.297Z,32.90
2018-12-19T16:00:44.640Z,36.20
2018-12-19T16:03:48.815Z,34.57
2018-12-19T16:06:53.071Z,30.43
2018-12-19T16:09:57.485Z,30.80
2018-12-19T16:13:01.922Z,33.73
2018-12-19T16:16:06.198Z,35.07
2018-12-19T16:19:10.426Z,36.40
2018-12-19T16:22:14.957Z,36.80
2018-12-19T16:25:19.368Z,31.87
2018-12-19T16:28:23.620Z,29.57
2018-12-19T16:31:27.918Z,35.10
2018-12-19T16:34:32.303Z,33.10
2018-12-19T16:37:36.677Z,29.70
2018-12-19T16:40:41.021Z,33.90
2018-12-19T16:43:45.097Z,35.07
2018-12-19T16:46:49.708Z,36.13
2018-12-19T16:49:54.444Z,36.00
2018-12-19T16:52:58.644Z,40.93
2018-12-19T16:56:03.025Z,30.33
2018-12-19T16:59:07.256Z,33.70
2018-12-19T17:02:11.861Z,38.40
2018-12-19T17:05:16.232Z,40.57
2018-12-19T17:08:20.539Z,32.40
2018-12-19T17:11:24.930Z,33.53
2018-12-19T17:14:29.385Z,37.67
2018-12-19T17:17:33.933Z,37.77
2018-12-19T17:20:44.793Z,33.03
2018-12-19T17:23:49.196Z,40.67
2018-12-19T17:26:55.307Z,33.57
2018-12-19T17:29:59.785Z,32.23
2018-12-19T17:33:04.172Z,30.10
2018-12-19T17:36:08.583Z,36.67
2018-12-19T17:39:12.624Z,35.63
2018-12-19T17:42:16.772Z,34.30
2018-12-19T17:45:22.715Z,29.80
2018-12-19T17:48:27.312Z,31.00
2018-12-19T17:51:31.480Z,32.97
2018-12-19T17:54:35.907Z,30.20
2018-12-19T17:57:39.817Z,30.23
2018-12-19T18:00:43.895Z,28.33
2018-12-19T18:03:47.672Z,31.27
2018-12-19T18:06:51.528Z,28.90
2018-12-19T18:09:55.643Z,30.67
2018-12-19T18:13:05.937Z,34.40
2018-12-19T18:16:06.062Z,30.67
2018-12-19T18:19:11.836Z,31.80
2018-12-19T18:22:17.297Z,25.00
2018-12-19T18:25:22.029Z,32.53
2018-12-19T18:28:26.221Z,26.43
2018-12-19T18:31:30.522Z,30.17
2018-12-19T18:34:34.530Z,26.07
2018-12-19T18:37:39.415Z,32.07
2018-12-19T18:40:44.696Z,33.40
2018-12-19T18:43:50.062Z,30.90
2018-12-19T18:46:55.457Z,30.60
2018-12-19T18:50:00.534Z,29.40
2018-12-19T18:53:05.029Z,30.70
2018-12-19T18:56:09.190Z,38.10
2018-12-19T18:59:14.154Z,29.33
2018-12-19T19:02:18.478Z,33.50
2018-12-19T19:05:22.428Z,31.20
2018-12-19T19:08:26.277Z,35.93
2018-12-19T19:11:30.950Z,29.37
2018-12-19T19:14:34.817Z,30.27
2018-12-19T19:17:38.597Z,38.00
2018-12-19T19:20:42.560Z,32.13
2018-12-19T19:23:46.324Z,30.33
2018-12-19T19:26:50.114Z,34.83
2018-12-19T19:29:53.959Z,27.27
2018-12-19T19:32:57.907Z,33.97
2018-12-19T19:36:02.141Z,34.00
2018-12-19T19:39:08.545Z,41.70
2018-12-19T19:42:12.520Z,38.80
2018-12-19T19:45:16.407Z,33.30
2018-12-19T19:48:20.316Z,37.30
2018-12-19T19:51:24.214Z,35.87
2018-12-19T19:54:29.440Z,34.97
2018-12-19T19:57:33.812Z,34.77
2018-12-19T20:00:39.460Z,37.07
2018-12-19T20:03:43.502Z,35.03
2018-12-19T20:06:47.931Z,35.50
2018-12-19T20:09:52.841Z,36.43
2018-12-19T20:12:57.572Z,41.83
2018-12-19T20:16:02.196Z,34.20
2018-12-19T20:19:07.316Z,42.30
2018-12-19T20:22:11.515Z,38.20
2018-12-19T20:25:15.645Z,38.37
2018-12-19T20:28:20.381Z,42.63
2018-12-19T20:31:24.735Z,43.23
2018-12-19T20:34:28.894Z,41.73
2018-12-19T20:37:34.333Z,42.03
2018-12-19T20:40:38.835Z,42.03
2018-12-19T20:43:43.775Z,40.90
2018-12-19T20:46:47.916Z,35.33
2018-12-19T20:49:52.149Z,45.43
2018-12-19T20:52:57.462Z,41.10
2018-12-19T20:56:03.879Z,41.27
2018-12-19T20:59:08.508Z,44.70
2018-12-19T21:02:12.885Z,35.50
2018-12-19T21:05:17.340Z,38.27
2018-12-19T21:08:22.405Z,42.50
2018-12-19T21:11:26.549Z,41.43
2018-12-19T21:14:31.083Z,44.10
2018-12-19T21:17:41.258Z,38.53
2018-12-19T21:20:45.084Z,40.77
2018-12-19T21:23:49.033Z,33.97
2018-12-19T21:26:54.391Z,39.67
2018-12-19T21:29:58.588Z,34.97
2018-12-19T21:33:02.538Z,35.70
2018-12-19T21:36:06.447Z,32.80
2018-12-19T21:39:11.355Z,40.50
2018-12-19T21:42:15.337Z,34.77
2018-12-19T21:45:19.784Z,36.10
2018-12-19T21:48:23.869Z,32.47
2018-12-19T21:51:27.835Z,35.37
2018-12-19T21:54:32.282Z,39.43
2018-12-19T21:57:36.512Z,36.17
2018-12-19T22:00:41.384Z,38.30
2018-12-19T22:03:47.089Z,36.60
2018-12-19T22:06:51.429Z,37.57
2018-12-19T22:09:55.858Z,34.63
2018-12-19T22:13:00.304Z,35.63
2018-12-19T22:16:04.521Z,33.27
2018-12-19T22:19:08.594Z,31.40
2018-12-19T22:22:14.623Z,30.80
2018-12-19T22:25:18.603Z,34.63
2018-12-19T22:28:22.550Z,35.33
2018-12-19T22:31:26.988Z,38.67
2018-12-19T22:34:31.255Z,39.27
2018-12-19T22:37:35.373Z,33.43
2018-12-19T22:40:40.124Z,35.47
2018-12-19T22:43:44.573Z,39.70
2018-12-19T22:46:48.649Z,38.33
2018-12-19T22:49:52.712Z,42.47
2018-12-19T22:52:56.878Z,38.77
2018-12-19T22:56:02.062Z,37.63
2018-12-19T22:59:06.128Z,31.80
2018-12-19T23:02:15.344Z,47.47
2018-12-19T23:05:25.162Z,40.30
2018-12-19T23:08:29.429Z,39.53
2018-12-19T23:11:33.410Z,35.43
2018-12-19T23:14:37.343Z,34.77
2018-12-19T23:17:42.347Z,35.90
2018-12-19T23:20:46.635Z,38.90
2018-12-19T23:23:50.922Z,33.40
2018-12-19T23:26:55.644Z,40.83
2018-12-19T23:30:00.059Z,32.37
2018-12-19T23:33:04.199Z,35.43
2018-12-19T23:36:08.779Z,32.87
2018-12-19T23:39:13.082Z,37.40
2018-12-19T23:42:17.365Z,33.70
2018-12-19T23:45:21.352Z,33.47
2018-12-19T23:48:25.778Z,33.10
2018-12-19T23:51:31.125Z,37.63
2018-12-19T23:54:35.093Z,39.93
2018-12-19T23:57:39.046Z,35.43
